Terminal Aerodrome Forecast
Issued by NWS

Home | Current Version | Previous Version | Text Only | Print | Product List | Glossary On
Versions: 1 2 3 4 5 6 7 8 9 10 11 12 13
270
FTUS42 KTAE 201720
TAFDHN
TAF
KDHN 201720Z 2018/2118 07006KT P6SM FEW250
      TEMPO 2110/2113 5SM BR SCT025
     FM211400 11008KT P6SM SCT035=

USA.gov is the U.S. government's official web portal to all federal, state and local government web resources and services.